createdAt,value
2022-11-23T00:01:24.278Z,2.18
2022-11-23T00:04:52.006Z,2.19
2022-11-23T00:08:22.252Z,2.22
2022-11-23T00:11:50.317Z,2.28
2022-11-23T00:15:18.404Z,2.32
2022-11-23T00:18:54.555Z,2.37
2022-11-23T00:22:22.619Z,2.43
2022-11-23T00:29:32.518Z,2.51
2022-11-23T00:33:13.681Z,2.53
2022-11-23T00:37:01.707Z,2.54
2022-11-23T00:40:29.796Z,2.50
2022-11-23T00:43:56.996Z,2.47
2022-11-23T00:47:23.902Z,2.44
2022-11-23T00:50:51.179Z,2.43
2022-11-23T00:54:18.787Z,2.39
2022-11-23T00:57:46.232Z,2.36
2022-11-23T01:01:15.270Z,2.35
2022-11-23T01:04:43.099Z,2.33
2022-11-23T01:08:10.703Z,2.32
2022-11-23T01:11:38.275Z,2.33
2022-11-23T01:15:05.974Z,2.35
2022-11-23T01:18:33.054Z,2.40
2022-11-23T01:22:01.683Z,2.46
2022-11-23T01:25:31.669Z,2.52
2022-11-23T01:29:02.413Z,2.56
2022-11-23T01:32:32.119Z,2.60
2022-11-23T01:35:59.312Z,2.64
2022-11-23T01:39:26.738Z,2.66
2022-11-23T01:42:57.274Z,2.65
2022-11-23T01:46:52.879Z,2.61
2022-11-23T01:50:23.018Z,2.60
2022-11-23T01:53:53.281Z,2.61
2022-11-23T01:57:24.515Z,2.57
2022-11-23T02:00:51.307Z,2.52
2022-11-23T02:04:22.655Z,2.45
2022-11-23T02:07:51.654Z,2.40
2022-11-23T02:11:19.425Z,2.36
2022-11-23T02:14:48.013Z,2.34
2022-11-23T02:18:18.425Z,2.32
2022-11-23T02:21:45.766Z,2.33
2022-11-23T02:25:21.845Z,2.34
2022-11-23T02:28:53.810Z,2.34
2022-11-23T02:32:24.866Z,2.37
2022-11-23T02:36:00.657Z,2.42
2022-11-23T02:39:33.674Z,2.40
2022-11-23T02:47:13.047Z,2.47
2022-11-23T02:50:45.579Z,2.51
2022-11-23T02:54:15.947Z,2.52
2022-11-23T02:57:42.700Z,2.56
2022-11-23T03:01:10.479Z,2.57
2022-11-23T03:04:37.881Z,2.53
2022-11-23T03:08:05.303Z,2.48
2022-11-23T03:11:33.522Z,2.44
2022-11-23T03:15:02.429Z,2.40
2022-11-23T03:18:30.709Z,2.34
2022-11-23T03:21:57.753Z,2.30
2022-11-23T03:25:25.275Z,2.29
2022-11-23T03:28:54.542Z,2.31
2022-11-23T03:32:22.729Z,2.32
2022-11-23T03:35:52.323Z,2.34
2022-11-23T03:39:22.706Z,2.37
2022-11-23T03:43:13.460Z,2.42
2022-11-23T03:46:41.336Z,2.48
2022-11-23T03:50:09.956Z,2.50
2022-11-23T03:53:37.084Z,2.51
2022-11-23T03:57:03.780Z,2.52
2022-11-23T04:00:35.008Z,2.56
2022-11-23T04:04:02.346Z,2.60
2022-11-23T04:07:49.448Z,2.63
2022-11-23T04:11:16.639Z,2.62
2022-11-23T04:14:46.831Z,2.60
2022-11-23T04:18:14.056Z,2.59
2022-11-23T04:21:41.496Z,2.56
2022-11-23T04:25:09.255Z,2.54
2022-11-23T04:28:36.449Z,2.49
2022-11-23T04:32:03.293Z,2.44
2022-11-23T04:35:30.808Z,2.40
2022-11-23T04:38:58.591Z,2.39
2022-11-23T04:42:33.701Z,2.39
2022-11-23T04:46:01.538Z,2.41
2022-11-23T04:49:29.773Z,2.44
2022-11-23T04:52:56.826Z,2.49
2022-11-23T04:56:28.285Z,2.56
2022-11-23T04:59:55.438Z,2.64
2022-11-23T05:03:24.289Z,2.71
2022-11-23T05:06:51.550Z,2.74
2022-11-23T05:10:18.701Z,2.78
2022-11-23T05:13:46.320Z,2.80
2022-11-23T05:17:13.121Z,2.81
2022-11-23T05:20:41.266Z,2.79
2022-11-23T05:24:22.706Z,2.77
2022-11-23T05:28:07.542Z,2.74
2022-11-23T05:31:44.194Z,2.73
2022-11-23T05:35:14.575Z,2.71
2022-11-23T05:38:41.891Z,2.69
2022-11-23T05:42:13.220Z,2.66
2022-11-23T05:45:41.997Z,2.64
2022-11-23T05:49:10.937Z,2.61
2022-11-23T05:52:38.041Z,2.60
2022-11-23T05:56:05.401Z,2.59
2022-11-23T05:59:35.310Z,2.64
2022-11-23T06:03:05.450Z,2.69
2022-11-23T06:06:32.398Z,2.75
2022-11-23T06:09:59.463Z,2.76
2022-11-23T06:13:26.680Z,2.81
2022-11-23T06:16:54.030Z,2.87
2022-11-23T06:20:42.173Z,2.90
2022-11-23T06:24:09.553Z,2.94
2022-11-23T06:27:37.453Z,2.95
2022-11-23T06:31:09.483Z,2.91
2022-11-23T06:34:36.730Z,2.88
2022-11-23T06:38:03.940Z,2.79
2022-11-23T06:41:32.658Z,2.73
2022-11-23T06:45:02.195Z,2.69
2022-11-23T06:48:30.289Z,2.63
2022-11-23T06:51:58.180Z,2.60
2022-11-23T06:55:25.404Z,2.60
2022-11-23T06:58:52.980Z,2.60
2022-11-23T07:02:22.627Z,2.62
2022-11-23T07:05:49.375Z,2.66
2022-11-23T07:09:18.337Z,2.71
2022-11-23T07:13:06.892Z,2.75
2022-11-23T07:16:36.978Z,2.83
2022-11-23T07:20:03.745Z,2.90
2022-11-23T07:23:31.743Z,2.95
2022-11-23T07:26:58.676Z,2.97
2022-11-23T07:30:29.312Z,2.95
2022-11-23T07:33:58.532Z,2.88
2022-11-23T07:37:26.097Z,2.87
2022-11-23T07:40:53.716Z,2.81
2022-11-23T07:44:31.984Z,2.74
2022-11-23T07:48:03.619Z,2.70
2022-11-23T07:51:37.162Z,2.68
2022-11-23T07:55:02.205Z,2.65
2022-11-23T07:58:29.630Z,2.62
2022-11-23T08:01:58.598Z,2.63
2022-11-23T08:05:27.588Z,2.64
2022-11-23T08:08:55.844Z,2.64
2022-11-23T08:12:23.480Z,2.66
2022-11-23T08:15:55.492Z,2.66
2022-11-23T08:19:23.118Z,2.66
2022-11-23T08:22:49.760Z,2.69
2022-11-23T08:26:16.335Z,2.73
2022-11-23T08:29:44.400Z,2.79
2022-11-23T08:33:13.635Z,2.82
2022-11-23T08:36:40.556Z,2.83
2022-11-23T08:40:08.924Z,2.80
2022-11-23T08:43:36.363Z,2.78
2022-11-23T08:47:03.887Z,2.71
2022-11-23T08:50:31.279Z,2.65
2022-11-23T08:53:58.731Z,2.59
2022-11-23T08:57:25.648Z,2.50
2022-11-23T09:00:52.331Z,2.43
2022-11-23T09:04:21.001Z,2.42
2022-11-23T09:07:47.825Z,2.41
2022-11-23T09:11:19.608Z,2.42
2022-11-23T09:14:46.031Z,2.47
2022-11-23T09:18:13.237Z,2.52
2022-11-23T09:21:40.095Z,2.58
2022-11-23T09:25:09.033Z,2.69
2022-11-23T09:28:43.103Z,2.72
2022-11-23T09:32:11.678Z,2.74
2022-11-23T09:35:43.588Z,2.75
2022-11-23T09:39:12.650Z,2.75
2022-11-23T09:43:18.990Z,2.72
2022-11-23T09:46:59.872Z,2.76
2022-11-23T09:50:36.311Z,2.76
2022-11-23T09:54:07.151Z,2.73
2022-11-23T09:57:37.788Z,2.70
2022-11-23T10:01:06.781Z,2.68
2022-11-23T10:04:37.255Z,2.64
2022-11-23T10:08:11.192Z,2.59
2022-11-23T10:12:05.435Z,2.53
2022-11-23T10:15:40.922Z,2.55
2022-11-23T10:19:21.109Z,2.50
2022-11-23T10:22:56.130Z,2.48
2022-11-23T10:26:28.406Z,2.49
2022-11-23T10:29:56.956Z,2.53
2022-11-23T10:33:31.755Z,2.56
2022-11-23T10:36:59.643Z,2.64
2022-11-23T10:40:30.763Z,2.72
2022-11-23T10:44:02.199Z,2.80
2022-11-23T10:47:41.137Z,2.88
2022-11-23T10:51:29.332Z,2.91
2022-11-23T10:54:59.113Z,2.94
2022-11-23T10:58:31.891Z,2.93
2022-11-23T11:02:17.982Z,2.94
2022-11-23T11:06:08.631Z,2.85
2022-11-23T11:09:36.317Z,2.74
2022-11-23T11:13:03.568Z,2.75
2022-11-23T11:16:32.646Z,2.72
2022-11-23T11:19:59.424Z,2.70
2022-11-23T11:23:30.927Z,2.72
2022-11-23T11:27:06.945Z,2.72
2022-11-23T11:30:50.321Z,2.72
2022-11-23T11:34:26.712Z,2.74
2022-11-23T11:37:56.682Z,2.78
2022-11-23T11:41:25.678Z,2.81
2022-11-23T11:44:56.437Z,2.83
2022-11-23T11:48:29.391Z,2.87
2022-11-23T11:52:03.822Z,2.92
2022-11-23T11:55:37.759Z,2.98
2022-11-23T11:59:14.522Z,3.03
2022-11-23T12:02:51.507Z,3.08
2022-11-23T12:06:27.097Z,3.05
2022-11-23T12:09:59.202Z,2.98
2022-11-23T12:13:30.864Z,2.95
2022-11-23T12:17:32.073Z,2.93
2022-11-23T12:21:04.314Z,2.92
2022-11-23T12:24:46.126Z,2.90
2022-11-23T12:28:38.658Z,2.92
2022-11-23T12:32:18.500Z,2.94
2022-11-23T12:36:04.150Z,2.95
2022-11-23T12:39:55.743Z,2.98
2022-11-23T12:43:33.558Z,3.03
2022-11-23T12:47:15.169Z,3.05
2022-11-23T12:50:49.432Z,3.16
2022-11-23T12:54:37.345Z,3.23
2022-11-23T12:58:10.726Z,3.34
2022-11-23T13:01:41.680Z,3.43
2022-11-23T13:05:32.744Z,3.47
2022-11-23T13:09:18.131Z,3.49
2022-11-23T13:13:27.655Z,3.51
2022-11-23T13:17:07.911Z,3.46
2022-11-23T13:21:04.210Z,3.40
2022-11-23T13:24:36.620Z,3.32
2022-11-23T13:28:05.980Z,3.28
2022-11-23T13:31:36.289Z,3.23
2022-11-23T13:35:03.390Z,3.20
2022-11-23T13:38:40.645Z,3.16
2022-11-23T13:42:11.425Z,3.13
2022-11-23T13:45:38.643Z,3.10
2022-11-23T13:49:05.519Z,3.09
2022-11-23T13:52:36.451Z,3.10
2022-11-23T13:56:31.989Z,3.15
2022-11-23T14:00:35.902Z,3.21
2022-11-23T14:04:20.770Z,3.27
2022-11-23T14:07:48.069Z,3.29
2022-11-23T14:11:18.943Z,3.33
2022-11-23T14:14:56.458Z,3.37
2022-11-23T14:18:41.682Z,3.32
2022-11-23T14:22:22.780Z,3.30
2022-11-23T14:25:58.594Z,3.30
2022-11-23T14:29:32.639Z,3.28
2022-11-23T14:33:15.487Z,3.27
2022-11-23T14:36:50.876Z,3.25
2022-11-23T14:40:25.027Z,3.23
2022-11-23T14:43:52.588Z,3.16
2022-11-23T14:47:29.565Z,3.10
2022-11-23T14:51:01.836Z,3.05
2022-11-23T14:54:30.384Z,3.02
2022-11-23T14:58:00.883Z,3.03
2022-11-23T15:01:30.065Z,3.06
2022-11-23T15:05:06.250Z,3.11
2022-11-23T15:08:38.496Z,3.17
2022-11-23T15:12:21.712Z,3.22
2022-11-23T15:15:52.695Z,3.27
2022-11-23T15:19:28.578Z,3.32
2022-11-23T15:22:55.486Z,3.36
2022-11-23T15:26:46.812Z,3.38
2022-11-23T15:30:22.750Z,3.39
2022-11-23T15:33:59.180Z,3.37
2022-11-23T15:37:27.196Z,3.38
2022-11-23T15:41:07.593Z,3.33
2022-11-23T15:44:39.907Z,3.27
2022-11-23T15:48:12.077Z,3.24
2022-11-23T15:51:42.511Z,3.20
2022-11-23T15:55:16.303Z,3.17
2022-11-23T15:58:41.885Z,3.13
2022-11-23T16:02:19.677Z,3.06
2022-11-23T16:05:47.306Z,3.04
2022-11-23T16:09:51.003Z,3.05
2022-11-23T16:13:39.787Z,3.09
2022-11-23T16:17:16.317Z,3.14
2022-11-23T16:20:51.922Z,3.22
2022-11-23T16:24:23.365Z,3.29
2022-11-23T16:28:00.055Z,3.36
2022-11-23T16:31:33.097Z,3.36
2022-11-23T16:35:10.464Z,3.34
2022-11-23T16:38:38.068Z,3.35
2022-11-23T16:42:05.434Z,3.38
2022-11-23T16:45:32.821Z,3.38
2022-11-23T16:49:00.904Z,3.35
2022-11-23T16:52:27.967Z,3.32
2022-11-23T16:55:59.605Z,3.28
2022-11-23T16:59:26.580Z,3.25
2022-11-23T17:02:53.287Z,3.19
2022-11-23T17:06:23.764Z,3.15
2022-11-23T17:09:50.398Z,3.15
2022-11-23T17:13:30.631Z,3.13
2022-11-23T17:17:00.209Z,3.14
2022-11-23T17:20:26.843Z,3.17
2022-11-23T17:23:53.604Z,3.20
2022-11-23T17:27:24.523Z,3.23
2022-11-23T17:30:52.368Z,3.28
2022-11-23T17:34:22.275Z,3.33
2022-11-23T17:37:49.584Z,3.38
2022-11-23T17:41:17.138Z,3.44
2022-11-23T17:44:46.547Z,3.46
2022-11-23T17:48:16.613Z,3.41
2022-11-23T17:51:50.706Z,3.38
2022-11-23T17:55:20.624Z,3.36
2022-11-23T17:58:50.649Z,3.32
2022-11-23T18:02:23.103Z,3.25
2022-11-23T18:05:50.123Z,3.21
2022-11-23T18:09:18.707Z,3.16
2022-11-23T18:12:47.856Z,3.13
2022-11-23T18:16:16.674Z,3.10
2022-11-23T18:19:45.480Z,3.09
2022-11-23T18:23:15.169Z,3.08
2022-11-23T18:26:46.025Z,3.13
2022-11-23T18:30:14.453Z,3.16
2022-11-23T18:33:41.786Z,3.23
2022-11-23T18:37:08.705Z,3.30
2022-11-23T18:40:36.073Z,3.36
2022-11-23T18:44:04.013Z,3.39
2022-11-23T18:47:33.872Z,3.44
2022-11-23T18:51:03.943Z,3.46
2022-11-23T18:54:31.490Z,3.44
2022-11-23T18:58:00.397Z,3.42
2022-11-23T19:01:32.300Z,3.37
2022-11-23T19:05:00.047Z,3.31
2022-11-23T19:08:29.147Z,3.26
2022-11-23T19:11:56.401Z,3.20
2022-11-23T19:15:27.111Z,3.15
2022-11-23T19:18:59.451Z,3.10
2022-11-23T19:22:30.035Z,3.07
2022-11-23T19:26:04.961Z,3.03
2022-11-23T19:29:33.732Z,3.01
2022-11-23T19:33:04.624Z,3.01
2022-11-23T19:36:39.623Z,3.02
2022-11-23T19:40:09.602Z,3.05
2022-11-23T19:43:37.489Z,3.07
2022-11-23T19:47:10.121Z,3.05
2022-11-23T19:50:40.900Z,3.09
2022-11-23T19:54:10.027Z,3.13
2022-11-23T19:57:38.986Z,3.14
2022-11-23T20:01:07.436Z,3.11
2022-11-23T20:04:34.611Z,3.05
2022-11-23T20:08:06.435Z,3.01
2022-11-23T20:11:37.860Z,2.91
2022-11-23T20:15:07.457Z,2.80
2022-11-23T20:18:34.476Z,2.73
2022-11-23T20:22:01.981Z,2.70
2022-11-23T20:25:34.281Z,2.65
2022-11-23T20:29:02.180Z,2.62
2022-11-23T20:32:29.791Z,2.55
2022-11-23T20:36:10.761Z,2.48
2022-11-23T20:39:40.422Z,2.45
2022-11-23T20:43:08.351Z,2.47
2022-11-23T20:50:25.521Z,2.59
2022-11-23T20:53:53.701Z,2.67
2022-11-23T20:57:24.112Z,2.71
2022-11-23T21:00:51.662Z,2.72
2022-11-23T21:04:18.330Z,2.67
2022-11-23T21:07:45.345Z,2.59
2022-11-23T21:11:36.869Z,2.55
2022-11-23T21:15:03.767Z,2.54
2022-11-23T21:18:30.567Z,2.53
2022-11-23T21:21:58.232Z,2.49
2022-11-23T21:25:25.335Z,2.42
2022-11-23T21:28:52.537Z,2.31
2022-11-23T21:32:19.677Z,2.24
2022-11-23T21:35:47.956Z,2.20
2022-11-23T21:39:16.747Z,2.18
2022-11-23T21:42:44.997Z,2.18
2022-11-23T21:46:13.335Z,2.20
2022-11-23T21:49:40.194Z,2.23
2022-11-23T21:53:06.875Z,2.30
2022-11-23T21:56:34.590Z,2.33
2022-11-23T22:00:03.046Z,2.44
2022-11-23T22:07:36.277Z,2.40
2022-11-23T22:11:10.879Z,2.26
2022-11-23T22:14:40.933Z,2.15
2022-11-23T22:18:11.696Z,2.13
2022-11-23T22:21:44.619Z,2.13
2022-11-23T22:25:12.844Z,2.10
2022-11-23T22:28:44.298Z,2.05
2022-11-23T22:32:13.103Z,2.04
2022-11-23T22:35:42.539Z,2.03
2022-11-23T22:39:11.326Z,2.02
2022-11-23T22:42:54.615Z,1.99
2022-11-23T22:46:26.128Z,1.99
2022-11-23T22:49:54.744Z,2.00
2022-11-23T22:53:23.013Z,2.03
2022-11-23T22:56:50.916Z,2.02
2022-11-23T23:00:20.712Z,2.04
2022-11-23T23:03:50.027Z,2.11
2022-11-23T23:07:17.708Z,2.17
2022-11-23T23:10:48.832Z,2.23
2022-11-23T23:14:18.050Z,2.25
2022-11-23T23:17:46.808Z,2.23
2022-11-23T23:21:18.371Z,2.25
2022-11-23T23:24:48.705Z,2.24
2022-11-23T23:28:19.850Z,2.17
2022-11-23T23:31:48.329Z,2.06
2022-11-23T23:35:16.692Z,1.96
2022-11-23T23:38:45.946Z,1.90
2022-11-23T23:42:16.152Z,1.88
2022-11-23T23:45:45.760Z,1.86
2022-11-23T23:49:13.668Z,1.82
2022-11-23T23:52:42.926Z,1.77
2022-11-23T23:56:14.473Z,1.75
2022-11-23T23:59:41.953Z,1.71
